sensor_id;sensor_type;location;lat;lon;timestamp;P1;durP1;ratioP1;P2;durP2;ratioP2
68455;SDS011;55437;55.046;38.838;2023-07-30T00:00:19;10.43;;;4.35;;
68455;SDS011;55437;55.046;38.838;2023-07-30T00:02:45;11.73;;;5.03;;
68455;SDS011;55437;55.046;38.838;2023-07-30T00:05:11;11.20;;;4.78;;
68455;SDS011;55437;55.046;38.838;2023-07-30T00:07:37;9.98;;;4.40;;
68455;SDS011;55437;55.046;38.838;2023-07-30T00:10:02;13.07;;;4.70;;
68455;SDS011;55437;55.046;38.838;2023-07-30T00:12:31;9.55;;;4.60;;
68455;SDS011;55437;55.046;38.838;2023-07-30T00:14:57;11.40;;;5.00;;
68455;SDS011;55437;55.046;38.838;2023-07-30T00:17:22;10.38;;;4.15;;
68455;SDS011;55437;55.046;38.838;2023-07-30T00:19:48;9.60;;;4.50;;
68455;SDS011;55437;55.046;38.838;2023-07-30T00:22:14;8.68;;;4.28;;
68455;SDS011;55437;55.046;38.838;2023-07-30T00:24:40;11.10;;;4.60;;
68455;SDS011;55437;55.046;38.838;2023-07-30T00:27:06;10.65;;;4.97;;
68455;SDS011;55437;55.046;38.838;2023-07-30T00:29:31;13.30;;;4.55;;
68455;SDS011;55437;55.046;38.838;2023-07-30T00:31:57;9.98;;;4.63;;
68455;SDS011;55437;55.046;38.838;2023-07-30T00:34:23;9.85;;;4.65;;
68455;SDS011;55437;55.046;38.838;2023-07-30T00:36:49;10.27;;;4.45;;
68455;SDS011;55437;55.046;38.838;2023-07-30T00:39:15;11.60;;;4.45;;
68455;SDS011;55437;55.046;38.838;2023-07-30T00:41:41;15.00;;;6.75;;
68455;SDS011;55437;55.046;38.838;2023-07-30T00:44:07;12.00;;;4.10;;
68455;SDS011;55437;55.046;38.838;2023-07-30T00:46:35;10.88;;;4.78;;
68455;SDS011;55437;55.046;38.838;2023-07-30T00:49:06;13.88;;;5.03;;
68455;SDS011;55437;55.046;38.838;2023-07-30T00:51:31;11.85;;;4.38;;
68455;SDS011;55437;55.046;38.838;2023-07-30T00:53:59;11.13;;;4.78;;
68455;SDS011;55437;55.046;38.838;2023-07-30T00:56:26;12.73;;;4.93;;
68455;SDS011;55437;55.046;38.838;2023-07-30T00:58:53;10.90;;;4.80;;
68455;SDS011;55437;55.046;38.838;2023-07-30T01:01:20;11.20;;;4.70;;
68455;SDS011;55437;55.046;38.838;2023-07-30T01:03:46;15.77;;;5.53;;
68455;SDS011;55437;55.046;38.838;2023-07-30T01:06:13;12.90;;;4.82;;
68455;SDS011;55437;55.046;38.838;2023-07-30T01:08:39;11.77;;;4.93;;
68455;SDS011;55437;55.046;38.838;2023-07-30T01:11:05;12.65;;;4.72;;
68455;SDS011;55437;55.046;38.838;2023-07-30T01:13:31;12.23;;;4.72;;
68455;SDS011;55437;55.046;38.838;2023-07-30T01:15:58;13.93;;;5.35;;
68455;SDS011;55437;55.046;38.838;2023-07-30T01:18:24;8.93;;;4.68;;
68455;SDS011;55437;55.046;38.838;2023-07-30T01:20:53;10.43;;;4.53;;
68455;SDS011;55437;55.046;38.838;2023-07-30T01:23:19;11.27;;;5.07;;
68455;SDS011;55437;55.046;38.838;2023-07-30T01:25:45;12.38;;;4.55;;
68455;SDS011;55437;55.046;38.838;2023-07-30T01:28:17;16.50;;;5.47;;
68455;SDS011;55437;55.046;38.838;2023-07-30T01:30:45;15.27;;;6.53;;
68455;SDS011;55437;55.046;38.838;2023-07-30T01:33:12;12.80;;;5.45;;
68455;SDS011;55437;55.046;38.838;2023-07-30T01:35:38;12.93;;;5.10;;
68455;SDS011;55437;55.046;38.838;2023-07-30T01:38:08;17.85;;;5.97;;
68455;SDS011;55437;55.046;38.838;2023-07-30T01:40:35;13.77;;;5.22;;
68455;SDS011;55437;55.046;38.838;2023-07-30T01:43:01;10.93;;;5.93;;
68455;SDS011;55437;55.046;38.838;2023-07-30T01:45:46;16.13;;;5.50;;
68455;SDS011;55437;55.046;38.838;2023-07-30T01:48:12;14.05;;;5.22;;
68455;SDS011;55437;55.046;38.838;2023-07-30T01:50:38;11.68;;;5.15;;
68455;SDS011;55437;55.046;38.838;2023-07-30T01:53:04;13.35;;;5.22;;
68455;SDS011;55437;55.046;38.838;2023-07-30T01:55:29;13.82;;;4.82;;
68455;SDS011;55437;55.046;38.838;2023-07-30T01:57:55;10.85;;;4.75;;
68455;SDS011;55437;55.046;38.838;2023-07-30T02:00:21;10.82;;;5.28;;
68455;SDS011;55437;55.046;38.838;2023-07-30T02:02:47;13.90;;;5.53;;
68455;SDS011;55437;55.046;38.838;2023-07-30T02:05:13;11.65;;;5.20;;
68455;SDS011;55437;55.046;38.838;2023-07-30T02:07:43;11.80;;;5.00;;
68455;SDS011;55437;55.046;38.838;2023-07-30T02:10:08;12.25;;;5.05;;
68455;SDS011;55437;55.046;38.838;2023-07-30T02:12:34;11.80;;;4.78;;
68455;SDS011;55437;55.046;38.838;2023-07-30T02:15:00;10.60;;;4.85;;
68455;SDS011;55437;55.046;38.838;2023-07-30T02:17:31;12.07;;;4.78;;
68455;SDS011;55437;55.046;38.838;2023-07-30T02:20:17;12.60;;;5.13;;
68455;SDS011;55437;55.046;38.838;2023-07-30T02:22:43;10.27;;;4.93;;
68455;SDS011;55437;55.046;38.838;2023-07-30T02:25:10;14.35;;;5.85;;
68455;SDS011;55437;55.046;38.838;2023-07-30T02:27:36;12.48;;;4.72;;
68455;SDS011;55437;55.046;38.838;2023-07-30T02:30:02;13.73;;;5.35;;
68455;SDS011;55437;55.046;38.838;2023-07-30T02:32:30;12.32;;;4.75;;
68455;SDS011;55437;55.046;38.838;2023-07-30T02:34:55;12.02;;;5.20;;
68455;SDS011;55437;55.046;38.838;2023-07-30T02:37:22;13.00;;;5.85;;
68455;SDS011;55437;55.046;38.838;2023-07-30T02:39:47;13.70;;;5.68;;
68455;SDS011;55437;55.046;38.838;2023-07-30T02:42:13;12.88;;;5.13;;
68455;SDS011;55437;55.046;38.838;2023-07-30T02:44:39;10.02;;;4.60;;
68455;SDS011;55437;55.046;38.838;2023-07-30T02:47:05;12.48;;;5.30;;
68455;SDS011;55437;55.046;38.838;2023-07-30T02:49:31;11.30;;;5.13;;
68455;SDS011;55437;55.046;38.838;2023-07-30T02:51:57;13.60;;;7.07;;
68455;SDS011;55437;55.046;38.838;2023-07-30T02:54:23;12.48;;;5.80;;
68455;SDS011;55437;55.046;38.838;2023-07-30T02:56:48;13.10;;;6.00;;
68455;SDS011;55437;55.046;38.838;2023-07-30T02:59:14;11.27;;;5.03;;
68455;SDS011;55437;55.046;38.838;2023-07-30T03:01:40;15.23;;;5.35;;
68455;SDS011;55437;55.046;38.838;2023-07-30T03:04:06;10.02;;;5.00;;
68455;SDS011;55437;55.046;38.838;2023-07-30T03:06:32;13.18;;;5.65;;
68455;SDS011;55437;55.046;38.838;2023-07-30T03:08:58;13.98;;;5.05;;
68455;SDS011;55437;55.046;38.838;2023-07-30T03:11:23;11.52;;;5.30;;
68455;SDS011;55437;55.046;38.838;2023-07-30T03:13:49;11.82;;;5.88;;
68455;SDS011;55437;55.046;38.838;2023-07-30T03:16:15;12.90;;;5.18;;
68455;SDS011;55437;55.046;38.838;2023-07-30T03:18:41;12.30;;;5.15;;
68455;SDS011;55437;55.046;38.838;2023-07-30T03:21:06;13.70;;;5.13;;
68455;SDS011;55437;55.046;38.838;2023-07-30T03:23:32;13.10;;;5.40;;
68455;SDS011;55437;55.046;38.838;2023-07-30T03:25:59;13.60;;;7.00;;
68455;SDS011;55437;55.046;38.838;2023-07-30T03:28:25;12.30;;;5.32;;
68455;SDS011;55437;55.046;38.838;2023-07-30T03:30:51;11.40;;;4.97;;
68455;SDS011;55437;55.046;38.838;2023-07-30T03:33:17;11.32;;;5.32;;
68455;SDS011;55437;55.046;38.838;2023-07-30T03:35:43;11.77;;;4.97;;
68455;SDS011;55437;55.046;38.838;2023-07-30T03:38:08;10.05;;;4.97;;
68455;SDS011;55437;55.046;38.838;2023-07-30T03:40:34;17.15;;;5.80;;
68455;SDS011;55437;55.046;38.838;2023-07-30T03:43:00;10.82;;;5.22;;
68455;SDS011;55437;55.046;38.838;2023-07-30T03:45:26;11.52;;;5.35;;
68455;SDS011;55437;55.046;38.838;2023-07-30T03:47:52;18.77;;;6.07;;
68455;SDS011;55437;55.046;38.838;2023-07-30T03:50:18;10.85;;;5.13;;
68455;SDS011;55437;55.046;38.838;2023-07-30T03:52:43;15.98;;;6.57;;
68455;SDS011;55437;55.046;38.838;2023-07-30T03:55:09;13.68;;;5.70;;
68455;SDS011;55437;55.046;38.838;2023-07-30T03:57:35;15.07;;;6.15;;
68455;SDS011;55437;55.046;38.838;2023-07-30T04:00:02;14.02;;;5.63;;
68455;SDS011;55437;55.046;38.838;2023-07-30T04:02:31;12.20;;;5.18;;
68455;SDS011;55437;55.046;38.838;2023-07-30T04:04:57;12.25;;;5.70;;
68455;SDS011;55437;55.046;38.838;2023-07-30T04:07:23;15.60;;;6.20;;
68455;SDS011;55437;55.046;38.838;2023-07-30T04:09:48;14.77;;;6.45;;
68455;SDS011;55437;55.046;38.838;2023-07-30T04:12:15;15.25;;;5.78;;
68455;SDS011;55437;55.046;38.838;2023-07-30T04:14:41;12.88;;;5.60;;
68455;SDS011;55437;55.046;38.838;2023-07-30T04:17:32;14.95;;;5.35;;
68455;SDS011;55437;55.046;38.838;2023-07-30T04:19:58;14.23;;;6.72;;
68455;SDS011;55437;55.046;38.838;2023-07-30T04:22:24;13.05;;;5.55;;
68455;SDS011;55437;55.046;38.838;2023-07-30T04:24:49;14.23;;;5.93;;
68455;SDS011;55437;55.046;38.838;2023-07-30T04:27:15;13.02;;;5.68;;
68455;SDS011;55437;55.046;38.838;2023-07-30T04:29:41;11.05;;;5.82;;
68455;SDS011;55437;55.046;38.838;2023-07-30T04:32:07;14.60;;;6.35;;
68455;SDS011;55437;55.046;38.838;2023-07-30T04:34:32;15.25;;;6.15;;
68455;SDS011;55437;55.046;38.838;2023-07-30T04:36:59;13.82;;;5.65;;
68455;SDS011;55437;55.046;38.838;2023-07-30T04:39:25;14.27;;;6.00;;
68455;SDS011;55437;55.046;38.838;2023-07-30T04:41:51;13.05;;;6.15;;
68455;SDS011;55437;55.046;38.838;2023-07-30T04:44:17;12.55;;;5.35;;
68455;SDS011;55437;55.046;38.838;2023-07-30T04:46:43;16.65;;;6.45;;
68455;SDS011;55437;55.046;38.838;2023-07-30T04:49:09;14.13;;;6.07;;
68455;SDS011;55437;55.046;38.838;2023-07-30T04:51:35;12.90;;;5.70;;
68455;SDS011;55437;55.046;38.838;2023-07-30T04:54:01;12.10;;;5.85;;
68455;SDS011;55437;55.046;38.838;2023-07-30T04:56:27;13.35;;;5.75;;
68455;SDS011;55437;55.046;38.838;2023-07-30T04:58:53;13.32;;;6.40;;
68455;SDS011;55437;55.046;38.838;2023-07-30T05:01:19;13.98;;;5.88;;
68455;SDS011;55437;55.046;38.838;2023-07-30T05:03:45;12.73;;;5.30;;
68455;SDS011;55437;55.046;38.838;2023-07-30T05:06:11;13.15;;;6.45;;
68455;SDS011;55437;55.046;38.838;2023-07-30T05:08:36;13.07;;;5.60;;
68455;SDS011;55437;55.046;38.838;2023-07-30T05:11:02;12.77;;;5.50;;
68455;SDS011;55437;55.046;38.838;2023-07-30T05:13:28;14.40;;;5.80;;
68455;SDS011;55437;55.046;38.838;2023-07-30T05:15:54;11.00;;;5.13;;
68455;SDS011;55437;55.046;38.838;2023-07-30T05:18:20;13.90;;;5.85;;
68455;SDS011;55437;55.046;38.838;2023-07-30T05:20:46;13.48;;;5.57;;
68455;SDS011;55437;55.046;38.838;2023-07-30T05:23:13;12.82;;;5.97;;
68455;SDS011;55437;55.046;38.838;2023-07-30T05:25:40;15.73;;;6.07;;
68455;SDS011;55437;55.046;38.838;2023-07-30T05:28:05;15.07;;;5.72;;
68455;SDS011;55437;55.046;38.838;2023-07-30T05:30:31;14.90;;;5.57;;
68455;SDS011;55437;55.046;38.838;2023-07-30T05:32:57;11.93;;;5.40;;
68455;SDS011;55437;55.046;38.838;2023-07-30T05:35:24;11.70;;;5.10;;
68455;SDS011;55437;55.046;38.838;2023-07-30T05:37:50;12.07;;;5.28;;
68455;SDS011;55437;55.046;38.838;2023-07-30T05:40:16;10.50;;;5.22;;
68455;SDS011;55437;55.046;38.838;2023-07-30T05:42:42;17.33;;;5.70;;
68455;SDS011;55437;55.046;38.838;2023-07-30T05:45:09;13.75;;;5.57;;
68455;SDS011;55437;55.046;38.838;2023-07-30T05:47:35;10.88;;;4.97;;
68455;SDS011;55437;55.046;38.838;2023-07-30T05:50:02;12.20;;;6.40;;
68455;SDS011;55437;55.046;38.838;2023-07-30T05:52:30;12.93;;;6.03;;
68455;SDS011;55437;55.046;38.838;2023-07-30T05:54:56;13.45;;;4.78;;
68455;SDS011;55437;55.046;38.838;2023-07-30T05:57:21;14.27;;;4.93;;
68455;SDS011;55437;55.046;38.838;2023-07-30T05:59:47;10.23;;;4.43;;
68455;SDS011;55437;55.046;38.838;2023-07-30T06:02:13;11.40;;;4.85;;
68455;SDS011;55437;55.046;38.838;2023-07-30T06:04:39;12.95;;;4.78;;
68455;SDS011;55437;55.046;38.838;2023-07-30T06:07:05;11.00;;;4.50;;
68455;SDS011;55437;55.046;38.838;2023-07-30T06:09:31;12.23;;;4.50;;
68455;SDS011;55437;55.046;38.838;2023-07-30T06:11:57;12.73;;;4.82;;
68455;SDS011;55437;55.046;38.838;2023-07-30T06:14:24;13.38;;;4.85;;
68455;SDS011;55437;55.046;38.838;2023-07-30T06:16:50;9.40;;;3.92;;
68455;SDS011;55437;55.046;38.838;2023-07-30T06:19:17;10.00;;;4.20;;
68455;SDS011;55437;55.046;38.838;2023-07-30T06:21:43;12.05;;;4.38;;
68455;SDS011;55437;55.046;38.838;2023-07-30T06:24:09;10.98;;;3.80;;
68455;SDS011;55437;55.046;38.838;2023-07-30T06:26:35;13.43;;;4.70;;
68455;SDS011;55437;55.046;38.838;2023-07-30T06:29:01;10.75;;;3.95;;
68455;SDS011;55437;55.046;38.838;2023-07-30T06:31:27;11.45;;;4.47;;
68455;SDS011;55437;55.046;38.838;2023-07-30T06:33:56;9.15;;;3.95;;
68455;SDS011;55437;55.046;38.838;2023-07-30T06:36:21;9.52;;;3.75;;
68455;SDS011;55437;55.046;38.838;2023-07-30T06:38:47;11.40;;;4.43;;
68455;SDS011;55437;55.046;38.838;2023-07-30T06:41:13;9.27;;;3.78;;
68455;SDS011;55437;55.046;38.838;2023-07-30T06:43:39;9.63;;;3.60;;
68455;SDS011;55437;55.046;38.838;2023-07-30T06:46:05;11.38;;;5.15;;
68455;SDS011;55437;55.046;38.838;2023-07-30T06:48:31;10.90;;;4.75;;
68455;SDS011;55437;55.046;38.838;2023-07-30T06:50:56;10.07;;;4.20;;
68455;SDS011;55437;55.046;38.838;2023-07-30T06:53:23;8.93;;;4.07;;
68455;SDS011;55437;55.046;38.838;2023-07-30T06:55:49;9.82;;;4.45;;
68455;SDS011;55437;55.046;38.838;2023-07-30T06:58:14;9.55;;;4.13;;
68455;SDS011;55437;55.046;38.838;2023-07-30T07:00:40;11.63;;;3.78;;
68455;SDS011;55437;55.046;38.838;2023-07-30T07:03:06;9.45;;;3.53;;
68455;SDS011;55437;55.046;38.838;2023-07-30T07:05:34;14.90;;;6.03;;
68455;SDS011;55437;55.046;38.838;2023-07-30T07:08:02;10.43;;;4.47;;
68455;SDS011;55437;55.046;38.838;2023-07-30T07:10:28;14.20;;;4.68;;
68455;SDS011;55437;55.046;38.838;2023-07-30T07:12:54;16.17;;;5.03;;
68455;SDS011;55437;55.046;38.838;2023-07-30T07:15:20;10.98;;;5.13;;
68455;SDS011;55437;55.046;38.838;2023-07-30T07:17:46;13.85;;;4.88;;
68455;SDS011;55437;55.046;38.838;2023-07-30T07:20:12;13.05;;;5.32;;
68455;SDS011;55437;55.046;38.838;2023-07-30T07:22:37;11.95;;;5.35;;
68455;SDS011;55437;55.046;38.838;2023-07-30T07:25:03;12.60;;;4.93;;
68455;SDS011;55437;55.046;38.838;2023-07-30T07:27:31;12.80;;;5.20;;
68455;SDS011;55437;55.046;38.838;2023-07-30T07:29:57;10.63;;;5.13;;
68455;SDS011;55437;55.046;38.838;2023-07-30T07:32:23;15.30;;;4.35;;
68455;SDS011;55437;55.046;38.838;2023-07-30T07:34:49;17.10;;;7.93;;
68455;SDS011;55437;55.046;38.838;2023-07-30T07:37:15;12.30;;;5.95;;
68455;SDS011;55437;55.046;38.838;2023-07-30T07:42:12;12.13;;;5.57;;
68455;SDS011;55437;55.046;38.838;2023-07-30T07:44:38;15.90;;;8.10;;
68455;SDS011;55437;55.046;38.838;2023-07-30T07:47:04;10.90;;;5.50;;
68455;SDS011;55437;55.046;38.838;2023-07-30T07:49:31;13.15;;;7.20;;
68455;SDS011;55437;55.046;38.838;2023-07-30T07:51:57;15.63;;;8.48;;
68455;SDS011;55437;55.046;38.838;2023-07-30T07:54:23;14.95;;;8.00;;
68455;SDS011;55437;55.046;38.838;2023-07-30T07:56:49;12.20;;;4.90;;
68455;SDS011;55437;55.046;38.838;2023-07-30T07:59:15;11.95;;;5.28;;
68455;SDS011;55437;55.046;38.838;2023-07-30T08:01:41;9.88;;;5.53;;
68455;SDS011;55437;55.046;38.838;2023-07-30T08:04:07;13.82;;;6.00;;
68455;SDS011;55437;55.046;38.838;2023-07-30T08:06:32;11.32;;;5.20;;
68455;SDS011;55437;55.046;38.838;2023-07-30T08:08:58;10.35;;;4.80;;
68455;SDS011;55437;55.046;38.838;2023-07-30T08:11:24;9.98;;;5.28;;
68455;SDS011;55437;55.046;38.838;2023-07-30T08:13:50;10.93;;;4.72;;
68455;SDS011;55437;55.046;38.838;2023-07-30T08:16:16;10.85;;;4.93;;
68455;SDS011;55437;55.046;38.838;2023-07-30T08:18:42;11.50;;;5.00;;
68455;SDS011;55437;55.046;38.838;2023-07-30T08:21:08;15.25;;;4.18;;
68455;SDS011;55437;55.046;38.838;2023-07-30T08:23:34;11.20;;;4.43;;
68455;SDS011;55437;55.046;38.838;2023-07-30T08:26:00;16.13;;;6.13;;
68455;SDS011;55437;55.046;38.838;2023-07-30T08:28:26;12.52;;;6.90;;
68455;SDS011;55437;55.046;38.838;2023-07-30T08:30:51;15.65;;;4.68;;
68455;SDS011;55437;55.046;38.838;2023-07-30T08:33:17;11.73;;;5.75;;
68455;SDS011;55437;55.046;38.838;2023-07-30T08:35:43;13.82;;;4.85;;
68455;SDS011;55437;55.046;38.838;2023-07-30T08:38:09;9.32;;;4.70;;
68455;SDS011;55437;55.046;38.838;2023-07-30T08:40:38;9.55;;;3.70;;
68455;SDS011;55437;55.046;38.838;2023-07-30T08:43:05;9.07;;;4.70;;
68455;SDS011;55437;55.046;38.838;2023-07-30T08:45:31;11.10;;;4.90;;
68455;SDS011;55437;55.046;38.838;2023-07-30T08:47:57;12.82;;;4.75;;
68455;SDS011;55437;55.046;38.838;2023-07-30T08:50:23;12.02;;;5.60;;
68455;SDS011;55437;55.046;38.838;2023-07-30T08:52:52;10.57;;;4.40;;
68455;SDS011;55437;55.046;38.838;2023-07-30T08:55:19;13.73;;;3.67;;
68455;SDS011;55437;55.046;38.838;2023-07-30T08:57:45;9.98;;;4.03;;
68455;SDS011;55437;55.046;38.838;2023-07-30T09:00:12;10.65;;;4.30;;
68455;SDS011;55437;55.046;38.838;2023-07-30T09:02:49;9.18;;;3.78;;
68455;SDS011;55437;55.046;38.838;2023-07-30T09:05:19;13.00;;;5.38;;
68455;SDS011;55437;55.046;38.838;2023-07-30T09:07:46;14.38;;;6.13;;
68455;SDS011;55437;55.046;38.838;2023-07-30T09:10:17;10.02;;;4.00;;
68455;SDS011;55437;55.046;38.838;2023-07-30T09:12:45;13.23;;;4.15;;
68455;SDS011;55437;55.046;38.838;2023-07-30T09:15:11;10.35;;;3.78;;
68455;SDS011;55437;55.046;38.838;2023-07-30T09:17:37;10.38;;;4.50;;
68455;SDS011;55437;55.046;38.838;2023-07-30T09:20:03;12.85;;;4.00;;
68455;SDS011;55437;55.046;38.838;2023-07-30T09:22:32;9.52;;;3.88;;
68455;SDS011;55437;55.046;38.838;2023-07-30T09:25:02;9.27;;;3.90;;
68455;SDS011;55437;55.046;38.838;2023-07-30T09:27:29;16.75;;;8.55;;
68455;SDS011;55437;55.046;38.838;2023-07-30T09:32:27;18.77;;;8.32;;
68455;SDS011;55437;55.046;38.838;2023-07-30T09:35:07;11.07;;;5.43;;
68455;SDS011;55437;55.046;38.838;2023-07-30T09:37:39;13.10;;;4.57;;
68455;SDS011;55437;55.046;38.838;2023-07-30T09:40:35;13.45;;;6.07;;
68455;SDS011;55437;55.046;38.838;2023-07-30T09:43:04;9.73;;;3.78;;
68455;SDS011;55437;55.046;38.838;2023-07-30T09:45:34;9.45;;;3.10;;
68455;SDS011;55437;55.046;38.838;2023-07-30T09:48:02;9.05;;;3.28;;
68455;SDS011;55437;55.046;38.838;2023-07-30T09:50:36;17.20;;;7.75;;
68455;SDS011;55437;55.046;38.838;2023-07-30T09:53:04;12.10;;;6.32;;
68455;SDS011;55437;55.046;38.838;2023-07-30T09:55:30;8.77;;;3.30;;
68455;SDS011;55437;55.046;38.838;2023-07-30T09:57:57;9.45;;;3.42;;
68455;SDS011;55437;55.046;38.838;2023-07-30T10:00:22;9.13;;;3.20;;
68455;SDS011;55437;55.046;38.838;2023-07-30T10:02:50;11.95;;;3.13;;
68455;SDS011;55437;55.046;38.838;2023-07-30T10:05:21;11.07;;;3.35;;
68455;SDS011;55437;55.046;38.838;2023-07-30T10:07:56;8.93;;;3.45;;
68455;SDS011;55437;55.046;38.838;2023-07-30T10:10:26;8.70;;;2.97;;
68455;SDS011;55437;55.046;38.838;2023-07-30T10:12:55;7.57;;;2.60;;
68455;SDS011;55437;55.046;38.838;2023-07-30T10:15:26;9.45;;;3.38;;
68455;SDS011;55437;55.046;38.838;2023-07-30T10:17:52;7.15;;;2.80;;
68455;SDS011;55437;55.046;38.838;2023-07-30T10:20:22;8.38;;;2.60;;
68455;SDS011;55437;55.046;38.838;2023-07-30T10:22:56;9.73;;;2.53;;
68455;SDS011;55437;55.046;38.838;2023-07-30T10:25:43;6.70;;;2.55;;
68455;SDS011;55437;55.046;38.838;2023-07-30T10:31:04;10.23;;;2.90;;
68455;SDS011;55437;55.046;38.838;2023-07-30T10:33:43;8.40;;;2.28;;
68455;SDS011;55437;55.046;38.838;2023-07-30T10:36:16;7.55;;;2.05;;
68455;SDS011;55437;55.046;38.838;2023-07-30T10:38:44;7.07;;;2.65;;
68455;SDS011;55437;55.046;38.838;2023-07-30T10:41:14;9.07;;;2.60;;
68455;SDS011;55437;55.046;38.838;2023-07-30T10:43:48;8.13;;;2.40;;
68455;SDS011;55437;55.046;38.838;2023-07-30T10:46:15;7.68;;;2.53;;
68455;SDS011;55437;55.046;38.838;2023-07-30T10:48:43;16.17;;;9.75;;
68455;SDS011;55437;55.046;38.838;2023-07-30T10:51:11;11.60;;;5.22;;
68455;SDS011;55437;55.046;38.838;2023-07-30T10:53:38;7.85;;;2.40;;
68455;SDS011;55437;55.046;38.838;2023-07-30T10:56:10;8.60;;;2.45;;
68455;SDS011;55437;55.046;38.838;2023-07-30T10:58:38;9.10;;;2.63;;
68455;SDS011;55437;55.046;38.838;2023-07-30T11:01:05;22.40;;;10.23;;
68455;SDS011;55437;55.046;38.838;2023-07-30T11:03:33;7.28;;;3.17;;
68455;SDS011;55437;55.046;38.838;2023-07-30T11:05:59;8.20;;;2.53;;
68455;SDS011;55437;55.046;38.838;2023-07-30T11:08:36;7.97;;;2.25;;
68455;SDS011;55437;55.046;38.838;2023-07-30T11:11:06;6.82;;;2.60;;
68455;SDS011;55437;55.046;38.838;2023-07-30T11:13:39;8.80;;;2.50;;
68455;SDS011;55437;55.046;38.838;2023-07-30T11:16:08;7.53;;;3.05;;
68455;SDS011;55437;55.046;38.838;2023-07-30T11:18:36;6.95;;;2.55;;
68455;SDS011;55437;55.046;38.838;2023-07-30T11:21:04;7.35;;;2.85;;
68455;SDS011;55437;55.046;38.838;2023-07-30T11:23:31;9.07;;;3.45;;
68455;SDS011;55437;55.046;38.838;2023-07-30T11:26:00;11.52;;;4.50;;
68455;SDS011;55437;55.046;38.838;2023-07-30T11:28:32;10.10;;;4.82;;
68455;SDS011;55437;55.046;38.838;2023-07-30T11:31:06;8.43;;;2.83;;
68455;SDS011;55437;55.046;38.838;2023-07-30T11:33:38;10.13;;;3.42;;
68455;SDS011;55437;55.046;38.838;2023-07-30T11:36:25;8.10;;;2.80;;
68455;SDS011;55437;55.046;38.838;2023-07-30T11:38:55;9.88;;;3.13;;
68455;SDS011;55437;55.046;38.838;2023-07-30T11:41:22;9.32;;;2.55;;
68455;SDS011;55437;55.046;38.838;2023-07-30T11:43:50;9.23;;;2.70;;
68455;SDS011;55437;55.046;38.838;2023-07-30T11:46:17;8.07;;;2.72;;
68455;SDS011;55437;55.046;38.838;2023-07-30T11:48:46;9.35;;;2.40;;
68455;SDS011;55437;55.046;38.838;2023-07-30T11:51:25;7.28;;;2.10;;
68455;SDS011;55437;55.046;38.838;2023-07-30T11:54:18;7.47;;;2.90;;
68455;SDS011;55437;55.046;38.838;2023-07-30T11:56:45;16.30;;;5.20;;
68455;SDS011;55437;55.046;38.838;2023-07-30T11:59:11;6.90;;;2.20;;
68455;SDS011;55437;55.046;38.838;2023-07-30T12:01:36;8.60;;;2.75;;
68455;SDS011;55437;55.046;38.838;2023-07-30T12:04:03;7.95;;;2.50;;
68455;SDS011;55437;55.046;38.838;2023-07-30T12:06:43;8.93;;;3.30;;
68455;SDS011;55437;55.046;38.838;2023-07-30T12:09:34;8.35;;;2.90;;
68455;SDS011;55437;55.046;38.838;2023-07-30T12:12:01;14.60;;;2.67;;
68455;SDS011;55437;55.046;38.838;2023-07-30T12:15:09;6.72;;;2.42;;
68455;SDS011;55437;55.046;38.838;2023-07-30T12:17:22;7.65;;;2.63;;
68455;SDS011;55437;55.046;38.838;2023-07-30T12:19:51;9.55;;;3.05;;
68455;SDS011;55437;55.046;38.838;2023-07-30T12:22:18;7.93;;;2.65;;
68455;SDS011;55437;55.046;38.838;2023-07-30T12:27:14;15.88;;;6.65;;
68455;SDS011;55437;55.046;38.838;2023-07-30T12:29:40;10.82;;;3.15;;
68455;SDS011;55437;55.046;38.838;2023-07-30T12:32:06;9.25;;;3.20;;
68455;SDS011;55437;55.046;38.838;2023-07-30T12:34:32;11.40;;;2.92;;
68455;SDS011;55437;55.046;38.838;2023-07-30T12:36:59;9.45;;;2.58;;
68455;SDS011;55437;55.046;38.838;2023-07-30T12:39:25;8.70;;;2.75;;
68455;SDS011;55437;55.046;38.838;2023-07-30T12:41:51;9.45;;;2.97;;
68455;SDS011;55437;55.046;38.838;2023-07-30T12:44:17;8.80;;;3.67;;
68455;SDS011;55437;55.046;38.838;2023-07-30T12:46:43;12.00;;;2.65;;
68455;SDS011;55437;55.046;38.838;2023-07-30T12:49:09;8.15;;;2.63;;
68455;SDS011;55437;55.046;38.838;2023-07-30T12:51:34;7.70;;;2.95;;
68455;SDS011;55437;55.046;38.838;2023-07-30T12:54:00;7.15;;;3.00;;
68455;SDS011;55437;55.046;38.838;2023-07-30T12:56:26;7.88;;;2.53;;
68455;SDS011;55437;55.046;38.838;2023-07-30T12:58:53;8.07;;;2.53;;
68455;SDS011;55437;55.046;38.838;2023-07-30T13:01:19;8.00;;;2.88;;
68455;SDS011;55437;55.046;38.838;2023-07-30T13:03:45;8.52;;;2.67;;
68455;SDS011;55437;55.046;38.838;2023-07-30T13:06:12;8.27;;;3.00;;
68455;SDS011;55437;55.046;38.838;2023-07-30T13:08:38;7.50;;;3.17;;
68455;SDS011;55437;55.046;38.838;2023-07-30T13:11:05;10.80;;;5.13;;
68455;SDS011;55437;55.046;38.838;2023-07-30T13:13:32;8.68;;;3.00;;
68455;SDS011;55437;55.046;38.838;2023-07-30T13:15:58;10.18;;;3.20;;
68455;SDS011;55437;55.046;38.838;2023-07-30T13:18:28;7.88;;;3.08;;
68455;SDS011;55437;55.046;38.838;2023-07-30T13:20:54;9.13;;;3.13;;
68455;SDS011;55437;55.046;38.838;2023-07-30T13:23:19;8.05;;;2.70;;
68455;SDS011;55437;55.046;38.838;2023-07-30T13:25:45;8.95;;;3.15;;
68455;SDS011;55437;55.046;38.838;2023-07-30T13:28:12;10.02;;;2.88;;
68455;SDS011;55437;55.046;38.838;2023-07-30T13:30:38;10.68;;;3.05;;
68455;SDS011;55437;55.046;38.838;2023-07-30T13:33:04;11.23;;;4.03;;
68455;SDS011;55437;55.046;38.838;2023-07-30T13:35:30;7.22;;;2.97;;
68455;SDS011;55437;55.046;38.838;2023-07-30T13:37:56;8.70;;;3.45;;
68455;SDS011;55437;55.046;38.838;2023-07-30T13:40:22;9.93;;;3.08;;
68455;SDS011;55437;55.046;38.838;2023-07-30T13:42:48;7.38;;;2.80;;
68455;SDS011;55437;55.046;38.838;2023-07-30T13:45:16;8.77;;;3.10;;
68455;SDS011;55437;55.046;38.838;2023-07-30T13:47:41;8.77;;;3.35;;
68455;SDS011;55437;55.046;38.838;2023-07-30T13:50:07;7.03;;;2.60;;
68455;SDS011;55437;55.046;38.838;2023-07-30T13:52:33;7.70;;;2.75;;
68455;SDS011;55437;55.046;38.838;2023-07-30T13:54:59;9.70;;;3.03;;
68455;SDS011;55437;55.046;38.838;2023-07-30T13:57:25;10.68;;;2.92;;
68455;SDS011;55437;55.046;38.838;2023-07-30T13:59:52;9.93;;;2.58;;
68455;SDS011;55437;55.046;38.838;2023-07-30T14:02:18;10.65;;;3.08;;
68455;SDS011;55437;55.046;38.838;2023-07-30T14:04:45;9.82;;;3.50;;
68455;SDS011;55437;55.046;38.838;2023-07-30T14:07:11;7.50;;;3.22;;
68455;SDS011;55437;55.046;38.838;2023-07-30T14:09:37;11.68;;;3.67;;
68455;SDS011;55437;55.046;38.838;2023-07-30T14:12:03;7.80;;;3.35;;
68455;SDS011;55437;55.046;38.838;2023-07-30T14:14:30;9.30;;;3.08;;
68455;SDS011;55437;55.046;38.838;2023-07-30T14:16:56;8.35;;;3.30;;
68455;SDS011;55437;55.046;38.838;2023-07-30T14:19:22;10.75;;;3.75;;
68455;SDS011;55437;55.046;38.838;2023-07-30T14:21:48;11.65;;;3.00;;
68455;SDS011;55437;55.046;38.838;2023-07-30T14:24:14;7.78;;;2.60;;
68455;SDS011;55437;55.046;38.838;2023-07-30T14:26:41;8.93;;;3.42;;
68455;SDS011;55437;55.046;38.838;2023-07-30T14:29:07;8.65;;;2.85;;
68455;SDS011;55437;55.046;38.838;2023-07-30T14:31:33;9.18;;;3.38;;
68455;SDS011;55437;55.046;38.838;2023-07-30T14:33:59;8.15;;;2.92;;
68455;SDS011;55437;55.046;38.838;2023-07-30T14:36:25;8.48;;;3.17;;